sensor_id;sensor_type;location;lat;lon;timestamp;P1;durP1;ratioP1;P2;durP2;ratioP2
51814;SDS011;37874;53.158;6.766;2022-09-09T00:04:12;2.28;;;1.60;;
51814;SDS011;37874;53.158;6.766;2022-09-09T00:09:28;2.28;;;1.88;;
51814;SDS011;37874;53.158;6.766;2022-09-09T00:14:56;2.83;;;1.67;;
51814;SDS011;37874;53.158;6.766;2022-09-09T00:17:41;1.77;;;1.55;;
51814;SDS011;37874;53.158;6.766;2022-09-09T00:23:03;1.90;;;1.40;;
51814;SDS011;37874;53.158;6.766;2022-09-09T00:25:37;2.00;;;1.67;;
51814;SDS011;37874;53.158;6.766;2022-09-09T00:28:13;2.17;;;1.60;;
51814;SDS011;37874;53.158;6.766;2022-09-09T00:30:43;1.52;;;1.30;;
51814;SDS011;37874;53.158;6.766;2022-09-09T00:33:13;1.92;;;1.63;;
51814;SDS011;37874;53.158;6.766;2022-09-09T00:35:47;2.00;;;1.67;;
51814;SDS011;37874;53.158;6.766;2022-09-09T00:38:28;2.45;;;1.70;;
51814;SDS011;37874;53.158;6.766;2022-09-09T00:41:06;1.50;;;1.10;;
51814;SDS011;37874;53.158;6.766;2022-09-09T00:44:06;1.90;;;1.50;;
51814;SDS011;37874;53.158;6.766;2022-09-09T00:46:56;2.08;;;1.60;;
51814;SDS011;37874;53.158;6.766;2022-09-09T00:52:36;2.60;;;1.70;;
51814;SDS011;37874;53.158;6.766;2022-09-09T00:57:53;2.30;;;1.75;;
51814;SDS011;37874;53.158;6.766;2022-09-09T01:05:27;2.25;;;1.73;;
51814;SDS011;37874;53.158;6.766;2022-09-09T01:11:01;2.38;;;1.90;;
51814;SDS011;37874;53.158;6.766;2022-09-09T01:13:33;1.90;;;1.67;;
51814;SDS011;37874;53.158;6.766;2022-09-09T01:16:04;2.13;;;1.60;;
51814;SDS011;37874;53.158;6.766;2022-09-09T01:18:34;2.33;;;2.00;;
51814;SDS011;37874;53.158;6.766;2022-09-09T01:26:43;2.05;;;1.50;;
51814;SDS011;37874;53.158;6.766;2022-09-09T01:29:14;2.08;;;1.70;;
51814;SDS011;37874;53.158;6.766;2022-09-09T01:31:43;2.47;;;2.00;;
51814;SDS011;37874;53.158;6.766;2022-09-09T01:34:21;2.20;;;1.80;;
51814;SDS011;37874;53.158;6.766;2022-09-09T01:39:15;1.90;;;1.58;;
51814;SDS011;37874;53.158;6.766;2022-09-09T01:41:41;2.28;;;1.77;;
51814;SDS011;37874;53.158;6.766;2022-09-09T01:44:08;2.10;;;1.67;;
51814;SDS011;37874;53.158;6.766;2022-09-09T01:46:34;2.10;;;1.60;;
51814;SDS011;37874;53.158;6.766;2022-09-09T01:49:00;2.38;;;1.58;;
51814;SDS011;37874;53.158;6.766;2022-09-09T01:51:28;2.05;;;1.63;;
51814;SDS011;37874;53.158;6.766;2022-09-09T01:53:55;2.13;;;1.73;;
51814;SDS011;37874;53.158;6.766;2022-09-09T02:04:36;1.90;;;1.50;;
51814;SDS011;37874;53.158;6.766;2022-09-09T02:12:42;1.90;;;1.50;;
51814;SDS011;37874;53.158;6.766;2022-09-09T02:15:16;1.80;;;1.48;;
51814;SDS011;37874;53.158;6.766;2022-09-09T02:17:54;1.80;;;1.40;;
51814;SDS011;37874;53.158;6.766;2022-09-09T02:20:24;1.60;;;1.40;;
51814;SDS011;37874;53.158;6.766;2022-09-09T02:22:52;1.88;;;1.58;;
51814;SDS011;37874;53.158;6.766;2022-09-09T02:25:19;1.90;;;1.52;;
51814;SDS011;37874;53.158;6.766;2022-09-09T02:27:49;2.00;;;1.67;;
51814;SDS011;37874;53.158;6.766;2022-09-09T02:30:16;1.88;;;1.58;;
51814;SDS011;37874;53.158;6.766;2022-09-09T02:32:43;2.30;;;1.70;;
51814;SDS011;37874;53.158;6.766;2022-09-09T02:35:15;1.80;;;1.30;;
51814;SDS011;37874;53.158;6.766;2022-09-09T02:37:45;1.90;;;1.30;;
51814;SDS011;37874;53.158;6.766;2022-09-09T02:40:12;1.92;;;1.25;;
51814;SDS011;37874;53.158;6.766;2022-09-09T02:42:43;1.83;;;1.48;;
51814;SDS011;37874;53.158;6.766;2022-09-09T02:45:12;1.67;;;1.30;;
51814;SDS011;37874;53.158;6.766;2022-09-09T02:47:48;1.75;;;1.40;;
51814;SDS011;37874;53.158;6.766;2022-09-09T02:50:35;2.00;;;1.35;;
51814;SDS011;37874;53.158;6.766;2022-09-09T02:53:20;1.52;;;1.25;;
51814;SDS011;37874;53.158;6.766;2022-09-09T02:58:30;1.50;;;1.20;;
51814;SDS011;37874;53.158;6.766;2022-09-09T03:00:56;1.77;;;1.42;;
51814;SDS011;37874;53.158;6.766;2022-09-09T03:03:22;1.50;;;1.20;;
51814;SDS011;37874;53.158;6.766;2022-09-09T03:05:49;1.38;;;1.13;;
51814;SDS011;37874;53.158;6.766;2022-09-09T03:08:14;1.60;;;1.30;;
51814;SDS011;37874;53.158;6.766;2022-09-09T03:10:41;1.50;;;1.20;;
51814;SDS011;37874;53.158;6.766;2022-09-09T03:13:06;1.35;;;0.95;;
51814;SDS011;37874;53.158;6.766;2022-09-09T03:15:33;1.20;;;1.00;;
51814;SDS011;37874;53.158;6.766;2022-09-09T03:17:59;1.30;;;0.98;;
51814;SDS011;37874;53.158;6.766;2022-09-09T03:20:26;1.58;;;1.00;;
51814;SDS011;37874;53.158;6.766;2022-09-09T03:22:53;1.38;;;1.10;;
51814;SDS011;37874;53.158;6.766;2022-09-09T03:25:20;1.67;;;0.95;;
51814;SDS011;37874;53.158;6.766;2022-09-09T03:27:48;1.88;;;1.00;;
51814;SDS011;37874;53.158;6.766;2022-09-09T03:30:15;1.35;;;0.90;;
51814;SDS011;37874;53.158;6.766;2022-09-09T03:32:41;1.33;;;0.82;;
51814;SDS011;37874;53.158;6.766;2022-09-09T03:35:06;1.80;;;0.75;;
51814;SDS011;37874;53.158;6.766;2022-09-09T03:37:33;1.30;;;0.90;;
51814;SDS011;37874;53.158;6.766;2022-09-09T03:39:58;0.88;;;0.70;;
51814;SDS011;37874;53.158;6.766;2022-09-09T05:43:36;1.38;;;1.00;;
51814;SDS011;37874;53.158;6.766;2022-09-09T05:46:04;1.70;;;1.20;;
51814;SDS011;37874;53.158;6.766;2022-09-09T05:48:31;1.63;;;1.10;;
51814;SDS011;37874;53.158;6.766;2022-09-09T05:50:59;1.88;;;1.23;;
51814;SDS011;37874;53.158;6.766;2022-09-09T05:53:26;1.42;;;1.08;;
51814;SDS011;37874;53.158;6.766;2022-09-09T05:55:59;1.75;;;1.08;;
51814;SDS011;37874;53.158;6.766;2022-09-09T05:58:25;1.40;;;1.00;;
51814;SDS011;37874;53.158;6.766;2022-09-09T06:00:50;1.30;;;1.00;;
51814;SDS011;37874;53.158;6.766;2022-09-09T06:03:16;1.52;;;1.10;;
51814;SDS011;37874;53.158;6.766;2022-09-09T06:05:42;1.23;;;0.93;;
51814;SDS011;37874;53.158;6.766;2022-09-09T06:08:07;1.63;;;1.02;;
51814;SDS011;37874;53.158;6.766;2022-09-09T06:10:33;1.33;;;0.98;;
51814;SDS011;37874;53.158;6.766;2022-09-09T06:12:59;1.50;;;1.10;;
51814;SDS011;37874;53.158;6.766;2022-09-09T06:15:25;1.42;;;0.90;;
51814;SDS011;37874;53.158;6.766;2022-09-09T06:17:55;1.45;;;1.00;;
51814;SDS011;37874;53.158;6.766;2022-09-09T06:20:21;1.13;;;0.82;;
51814;SDS011;37874;53.158;6.766;2022-09-09T06:22:47;1.50;;;1.08;;
51814;SDS011;37874;53.158;6.766;2022-09-09T06:25:13;1.50;;;0.93;;
51814;SDS011;37874;53.158;6.766;2022-09-09T06:27:39;1.60;;;0.90;;
51814;SDS011;37874;53.158;6.766;2022-09-09T06:30:05;1.42;;;1.08;;
51814;SDS011;37874;53.158;6.766;2022-09-09T06:32:32;1.30;;;0.90;;
51814;SDS011;37874;53.158;6.766;2022-09-09T06:34:59;1.80;;;1.13;;
51814;SDS011;37874;53.158;6.766;2022-09-09T06:37:26;1.70;;;1.10;;
51814;SDS011;37874;53.158;6.766;2022-09-09T06:39:52;1.55;;;1.00;;
51814;SDS011;37874;53.158;6.766;2022-09-09T06:42:19;1.60;;;1.02;;
51814;SDS011;37874;53.158;6.766;2022-09-09T06:44:45;1.13;;;0.80;;
51814;SDS011;37874;53.158;6.766;2022-09-09T06:47:13;1.40;;;1.08;;
51814;SDS011;37874;53.158;6.766;2022-09-09T06:49:39;2.22;;;1.20;;
51814;SDS011;37874;53.158;6.766;2022-09-09T06:52:04;1.42;;;1.02;;
51814;SDS011;37874;53.158;6.766;2022-09-09T06:54:30;1.38;;;1.00;;
51814;SDS011;37874;53.158;6.766;2022-09-09T06:56:56;1.70;;;1.20;;
51814;SDS011;37874;53.158;6.766;2022-09-09T06:59:22;1.60;;;1.10;;
51814;SDS011;37874;53.158;6.766;2022-09-09T07:01:47;1.75;;;1.15;;
51814;SDS011;37874;53.158;6.766;2022-09-09T07:04:13;1.60;;;1.10;;
51814;SDS011;37874;53.158;6.766;2022-09-09T07:06:40;1.50;;;1.02;;
51814;SDS011;37874;53.158;6.766;2022-09-09T07:09:11;1.67;;;1.30;;
51814;SDS011;37874;53.158;6.766;2022-09-09T07:11:42;1.55;;;1.08;;
51814;SDS011;37874;53.158;6.766;2022-09-09T07:14:09;1.55;;;1.00;;
51814;SDS011;37874;53.158;6.766;2022-09-09T07:16:38;2.05;;;1.05;;
51814;SDS011;37874;53.158;6.766;2022-09-09T07:19:08;1.73;;;1.15;;
51814;SDS011;37874;53.158;6.766;2022-09-09T07:21:34;1.95;;;1.15;;
51814;SDS011;37874;53.158;6.766;2022-09-09T07:24:00;1.83;;;1.10;;
51814;SDS011;37874;53.158;6.766;2022-09-09T07:26:27;1.52;;;1.10;;
51814;SDS011;37874;53.158;6.766;2022-09-09T07:28:54;1.80;;;1.13;;
51814;SDS011;37874;53.158;6.766;2022-09-09T07:31:29;1.40;;;1.10;;
51814;SDS011;37874;53.158;6.766;2022-09-09T07:33:55;1.48;;;1.10;;
51814;SDS011;37874;53.158;6.766;2022-09-09T07:36:22;1.35;;;1.02;;
51814;SDS011;37874;53.158;6.766;2022-09-09T07:38:51;1.33;;;1.00;;
51814;SDS011;37874;53.158;6.766;2022-09-09T07:41:24;1.55;;;1.00;;
51814;SDS011;37874;53.158;6.766;2022-09-09T07:43:52;1.60;;;1.10;;
51814;SDS011;37874;53.158;6.766;2022-09-09T07:46:22;1.45;;;1.10;;
51814;SDS011;37874;53.158;6.766;2022-09-09T07:48:54;1.33;;;1.00;;
51814;SDS011;37874;53.158;6.766;2022-09-09T07:51:25;1.33;;;0.95;;
51814;SDS011;37874;53.158;6.766;2022-09-09T07:53:54;1.50;;;1.10;;
51814;SDS011;37874;53.158;6.766;2022-09-09T07:56:22;1.38;;;0.98;;
51814;SDS011;37874;53.158;6.766;2022-09-09T07:58:49;1.40;;;0.93;;
51814;SDS011;37874;53.158;6.766;2022-09-09T08:01:20;1.30;;;1.00;;
51814;SDS011;37874;53.158;6.766;2022-09-09T08:03:52;1.42;;;0.90;;
51814;SDS011;37874;53.158;6.766;2022-09-09T08:06:36;1.40;;;1.00;;
51814;SDS011;37874;53.158;6.766;2022-09-09T08:09:04;1.35;;;0.90;;
51814;SDS011;37874;53.158;6.766;2022-09-09T08:11:31;1.58;;;1.00;;
51814;SDS011;37874;53.158;6.766;2022-09-09T08:14:01;1.10;;;0.88;;
51814;SDS011;37874;53.158;6.766;2022-09-09T08:16:28;1.40;;;1.02;;
51814;SDS011;37874;53.158;6.766;2022-09-09T08:18:58;1.00;;;0.80;;
51814;SDS011;37874;53.158;6.766;2022-09-09T10:22:38;2.63;;;0.40;;
51814;SDS011;37874;53.158;6.766;2022-09-09T10:25:20;1.25;;;0.55;;
51814;SDS011;37874;53.158;6.766;2022-09-09T10:27:57;0.77;;;0.40;;
51814;SDS011;37874;53.158;6.766;2022-09-09T10:30:48;1.27;;;0.50;;
51814;SDS011;37874;53.158;6.766;2022-09-09T10:33:22;1.40;;;0.50;;
51814;SDS011;37874;53.158;6.766;2022-09-09T10:36:13;1.00;;;0.47;;
51814;SDS011;37874;53.158;6.766;2022-09-09T10:38:40;1.48;;;0.40;;
51814;SDS011;37874;53.158;6.766;2022-09-09T10:50:03;1.17;;;0.40;;
51814;SDS011;37874;53.158;6.766;2022-09-09T10:55:23;1.15;;;0.30;;
51814;SDS011;37874;53.158;6.766;2022-09-09T10:57:56;0.85;;;0.38;;
51814;SDS011;37874;53.158;6.766;2022-09-09T11:00:27;1.55;;;0.47;;
51814;SDS011;37874;53.158;6.766;2022-09-09T11:03:01;0.85;;;0.35;;
51814;SDS011;37874;53.158;6.766;2022-09-09T11:08:06;2.15;;;0.45;;
51814;SDS011;37874;53.158;6.766;2022-09-09T11:11:02;1.23;;;0.40;;
51814;SDS011;37874;53.158;6.766;2022-09-09T11:16:29;0.90;;;0.30;;
51814;SDS011;37874;53.158;6.766;2022-09-09T11:18:58;0.70;;;0.20;;
51814;SDS011;37874;53.158;6.766;2022-09-09T11:21:30;0.77;;;0.30;;
51814;SDS011;37874;53.158;6.766;2022-09-09T11:26:53;0.43;;;0.30;;
51814;SDS011;37874;53.158;6.766;2022-09-09T11:41:10;0.70;;;0.30;;
51814;SDS011;37874;53.158;6.766;2022-09-09T11:43:46;1.05;;;0.40;;
51814;SDS011;37874;53.158;6.766;2022-09-09T11:46:14;1.58;;;0.40;;
51814;SDS011;37874;53.158;6.766;2022-09-09T11:48:57;1.40;;;0.30;;
51814;SDS011;37874;53.158;6.766;2022-09-09T11:53:54;1.10;;;0.32;;
51814;SDS011;37874;53.158;6.766;2022-09-09T12:01:33;0.52;;;0.20;;
51814;SDS011;37874;53.158;6.766;2022-09-09T12:06:58;0.50;;;0.20;;
51814;SDS011;37874;53.158;6.766;2022-09-09T12:12:05;0.90;;;0.30;;
51814;SDS011;37874;53.158;6.766;2022-09-09T12:14:44;3.95;;;0.30;;
51814;SDS011;37874;53.158;6.766;2022-09-09T12:17:48;0.75;;;0.30;;
51814;SDS011;37874;53.158;6.766;2022-09-09T12:23:19;2.38;;;0.40;;
51814;SDS011;37874;53.158;6.766;2022-09-09T12:28:27;0.35;;;0.20;;
51814;SDS011;37874;53.158;6.766;2022-09-09T12:31:15;0.88;;;0.32;;
51814;SDS011;37874;53.158;6.766;2022-09-09T12:34:09;0.68;;;0.30;;
51814;SDS011;37874;53.158;6.766;2022-09-09T12:36:42;1.40;;;0.43;;
51814;SDS011;37874;53.158;6.766;2022-09-09T12:39:20;1.00;;;0.38;;
51814;SDS011;37874;53.158;6.766;2022-09-09T12:41:53;1.95;;;0.30;;
51814;SDS011;37874;53.158;6.766;2022-09-09T12:44:22;0.47;;;0.22;;
51814;SDS011;37874;53.158;6.766;2022-09-09T12:46:49;0.50;;;0.20;;
51814;SDS011;37874;53.158;6.766;2022-09-09T12:49:25;0.75;;;0.28;;
51814;SDS011;37874;53.158;6.766;2022-09-09T12:52:03;0.93;;;0.38;;
51814;SDS011;37874;53.158;6.766;2022-09-09T12:54:33;0.60;;;0.30;;
51814;SDS011;37874;53.158;6.766;2022-09-09T12:57:01;0.95;;;0.22;;
51814;SDS011;37874;53.158;6.766;2022-09-09T12:59:35;0.80;;;0.20;;
51814;SDS011;37874;53.158;6.766;2022-09-09T13:02:10;1.08;;;0.30;;
51814;SDS011;37874;53.158;6.766;2022-09-09T13:04:42;0.38;;;0.20;;
51814;SDS011;37874;53.158;6.766;2022-09-09T13:07:09;0.52;;;0.10;;
51814;SDS011;37874;53.158;6.766;2022-09-09T13:09:37;0.60;;;0.10;;
51814;SDS011;37874;53.158;6.766;2022-09-09T13:12:03;1.90;;;0.30;;
51814;SDS011;37874;53.158;6.766;2022-09-09T13:14:33;0.35;;;0.20;;
51814;SDS011;37874;53.158;6.766;2022-09-09T13:17:03;0.77;;;0.30;;
51814;SDS011;37874;53.158;6.766;2022-09-09T13:19:37;1.17;;;0.20;;
51814;SDS011;37874;53.158;6.766;2022-09-09T13:22:14;0.77;;;0.20;;
51814;SDS011;37874;53.158;6.766;2022-09-09T13:25:03;0.10;;;0.10;;
51814;SDS011;37874;53.158;6.766;2022-09-09T13:27:40;0.45;;;0.20;;
51814;SDS011;37874;53.158;6.766;2022-09-09T13:30:24;0.73;;;0.28;;
51814;SDS011;37874;53.158;6.766;2022-09-09T13:33:03;0.82;;;0.20;;
51814;SDS011;37874;53.158;6.766;2022-09-09T13:35:32;0.80;;;0.15;;
51814;SDS011;37874;53.158;6.766;2022-09-09T13:37:58;0.40;;;0.20;;
51814;SDS011;37874;53.158;6.766;2022-09-09T13:40:32;0.25;;;0.15;;
51814;SDS011;37874;53.158;6.766;2022-09-09T13:42:57;0.30;;;0.20;;
51814;SDS011;37874;53.158;6.766;2022-09-09T13:45:25;1.55;;;0.20;;
51814;SDS011;37874;53.158;6.766;2022-09-09T13:47:54;0.82;;;0.30;;
51814;SDS011;37874;53.158;6.766;2022-09-09T13:50:25;1.83;;;0.20;;
51814;SDS011;37874;53.158;6.766;2022-09-09T13:52:55;0.90;;;0.35;;
51814;SDS011;37874;53.158;6.766;2022-09-09T13:55:26;0.77;;;0.20;;
51814;SDS011;37874;53.158;6.766;2022-09-09T13:57:59;0.35;;;0.10;;
51814;SDS011;37874;53.158;6.766;2022-09-09T14:00:28;0.75;;;0.20;;
51814;SDS011;37874;53.158;6.766;2022-09-09T14:02:54;0.82;;;0.20;;
51814;SDS011;37874;53.158;6.766;2022-09-09T14:05:20;0.90;;;0.20;;
51814;SDS011;37874;53.158;6.766;2022-09-09T14:07:47;0.30;;;0.10;;
51814;SDS011;37874;53.158;6.766;2022-09-09T14:10:14;0.38;;;0.17;;
51814;SDS011;37874;53.158;6.766;2022-09-09T14:12:40;0.10;;;0.10;;
51814;SDS011;37874;53.158;6.766;2022-09-09T14:15:06;0.20;;;0.10;;
51814;SDS011;37874;53.158;6.766;2022-09-09T14:17:34;0.88;;;0.28;;
51814;SDS011;37874;53.158;6.766;2022-09-09T14:20:01;0.57;;;0.20;;
51814;SDS011;37874;53.158;6.766;2022-09-09T14:22:32;0.55;;;0.30;;
51814;SDS011;37874;53.158;6.766;2022-09-09T14:24:58;1.63;;;0.30;;
51814;SDS011;37874;53.158;6.766;2022-09-09T14:27:24;0.43;;;0.20;;
51814;SDS011;37874;53.158;6.766;2022-09-09T14:29:51;0.80;;;0.22;;
51814;SDS011;37874;53.158;6.766;2022-09-09T14:32:17;1.00;;;0.22;;
51814;SDS011;37874;53.158;6.766;2022-09-09T14:34:43;0.50;;;0.15;;
51814;SDS011;37874;53.158;6.766;2022-09-09T14:37:09;0.90;;;0.20;;
51814;SDS011;37874;53.158;6.766;2022-09-09T14:39:35;0.52;;;0.20;;
51814;SDS011;37874;53.158;6.766;2022-09-09T14:42:00;0.80;;;0.30;;
51814;SDS011;37874;53.158;6.766;2022-09-09T14:44:27;2.63;;;0.40;;
51814;SDS011;37874;53.158;6.766;2022-09-09T14:46:53;0.70;;;0.30;;
51814;SDS011;37874;53.158;6.766;2022-09-09T14:49:19;0.82;;;0.28;;
51814;SDS011;37874;53.158;6.766;2022-09-09T14:51:45;1.30;;;0.30;;
51814;SDS011;37874;53.158;6.766;2022-09-09T14:54:10;0.70;;;0.30;;
51814;SDS011;37874;53.158;6.766;2022-09-09T14:56:36;1.10;;;0.30;;
51814;SDS011;37874;53.158;6.766;2022-09-09T14:59:03;1.52;;;0.40;;
51814;SDS011;37874;53.158;6.766;2022-09-09T15:01:29;1.33;;;0.30;;
51814;SDS011;37874;53.158;6.766;2022-09-09T15:03:57;0.40;;;0.20;;
51814;SDS011;37874;53.158;6.766;2022-09-09T15:06:25;2.25;;;0.43;;
51814;SDS011;37874;53.158;6.766;2022-09-09T15:08:55;1.02;;;0.40;;
51814;SDS011;37874;53.158;6.766;2022-09-09T15:11:23;0.63;;;0.20;;
51814;SDS011;37874;53.158;6.766;2022-09-09T15:13:51;0.80;;;0.30;;
51814;SDS011;37874;53.158;6.766;2022-09-09T15:16:18;0.73;;;0.30;;
51814;SDS011;37874;53.158;6.766;2022-09-09T15:18:45;0.35;;;0.10;;
51814;SDS011;37874;53.158;6.766;2022-09-09T15:21:12;1.73;;;0.30;;
51814;SDS011;37874;53.158;6.766;2022-09-09T15:23:44;0.52;;;0.17;;
51814;SDS011;37874;53.158;6.766;2022-09-09T15:26:10;0.75;;;0.15;;
51814;SDS011;37874;53.158;6.766;2022-09-09T15:28:39;0.30;;;0.10;;
51814;SDS011;37874;53.158;6.766;2022-09-09T15:31:15;0.20;;;0.10;;
51814;SDS011;37874;53.158;6.766;2022-09-09T15:33:51;0.52;;;0.10;;
51814;SDS011;37874;53.158;6.766;2022-09-09T15:36:19;0.43;;;0.00;;
51814;SDS011;37874;53.158;6.766;2022-09-09T15:38:47;0.88;;;0.10;;
51814;SDS011;37874;53.158;6.766;2022-09-09T15:41:13;0.10;;;0.00;;
51814;SDS011;37874;53.158;6.766;2022-09-09T15:43:43;0.10;;;0.00;;
51814;SDS011;37874;53.158;6.766;2022-09-09T15:46:32;0.47;;;0.10;;
51814;SDS011;37874;53.158;6.766;2022-09-09T15:51:31;1.85;;;0.50;;
51814;SDS011;37874;53.158;6.766;2022-09-09T15:53:57;2.50;;;0.57;;
51814;SDS011;37874;53.158;6.766;2022-09-09T15:56:27;2.58;;;0.90;;
51814;SDS011;37874;53.158;6.766;2022-09-09T15:58:57;2.70;;;1.00;;
51814;SDS011;37874;53.158;6.766;2022-09-09T16:01:24;2.42;;;0.77;;
51814;SDS011;37874;53.158;6.766;2022-09-09T16:03:51;2.90;;;0.90;;
51814;SDS011;37874;53.158;6.766;2022-09-09T16:06:18;2.38;;;0.65;;
51814;SDS011;37874;53.158;6.766;2022-09-09T16:08:46;1.85;;;0.85;;
51814;SDS011;37874;53.158;6.766;2022-09-09T16:11:19;0.77;;;0.30;;
51814;SDS011;37874;53.158;6.766;2022-09-09T16:13:49;0.82;;;0.40;;
51814;SDS011;37874;53.158;6.766;2022-09-09T16:16:17;1.33;;;0.40;;
51814;SDS011;37874;53.158;6.766;2022-09-09T16:18:48;0.73;;;0.40;;
51814;SDS011;37874;53.158;6.766;2022-09-09T16:21:27;0.93;;;0.40;;
51814;SDS011;37874;53.158;6.766;2022-09-09T16:23:54;0.88;;;0.40;;
51814;SDS011;37874;53.158;6.766;2022-09-09T16:26:21;1.38;;;0.40;;
51814;SDS011;37874;53.158;6.766;2022-09-09T16:28:47;0.98;;;0.40;;
51814;SDS011;37874;53.158;6.766;2022-09-09T16:31:23;0.75;;;0.20;;
51814;SDS011;37874;53.158;6.766;2022-09-09T16:33:49;0.68;;;0.22;;
51814;SDS011;37874;53.158;6.766;2022-09-09T16:36:16;0.70;;;0.30;;
51814;SDS011;37874;53.158;6.766;2022-09-09T16:38:45;0.50;;;0.20;;
51814;SDS011;37874;53.158;6.766;2022-09-09T16:41:11;0.22;;;0.20;;
51814;SDS011;37874;53.158;6.766;2022-09-09T16:43:37;1.38;;;0.30;;
51814;SDS011;37874;53.158;6.766;2022-09-09T16:46:10;0.40;;;0.22;;
51814;SDS011;37874;53.158;6.766;2022-09-09T16:48:41;0.80;;;0.25;;
51814;SDS011;37874;53.158;6.766;2022-09-09T16:51:13;1.30;;;0.30;;
51814;SDS011;37874;53.158;6.766;2022-09-09T16:53:39;0.98;;;0.40;;
51814;SDS011;37874;53.158;6.766;2022-09-09T16:56:07;1.02;;;0.30;;
51814;SDS011;37874;53.158;6.766;2022-09-09T16:58:35;0.75;;;0.30;;
51814;SDS011;37874;53.158;6.766;2022-09-09T17:01:02;0.63;;;0.30;;
51814;SDS011;37874;53.158;6.766;2022-09-09T17:03:29;0.55;;;0.30;;
51814;SDS011;37874;53.158;6.766;2022-09-09T17:05:56;0.47;;;0.20;;
51814;SDS011;37874;53.158;6.766;2022-09-09T17:08:23;0.65;;;0.30;;
51814;SDS011;37874;53.158;6.766;2022-09-09T17:10:49;0.40;;;0.20;;
51814;SDS011;37874;53.158;6.766;2022-09-09T17:13:15;0.85;;;0.30;;
51814;SDS011;37874;53.158;6.766;2022-09-09T17:15:43;0.73;;;0.30;;
51814;SDS011;37874;53.158;6.766;2022-09-09T17:18:09;0.93;;;0.30;;
51814;SDS011;37874;53.158;6.766;2022-09-09T17:20:39;0.88;;;0.43;;
51814;SDS011;37874;53.158;6.766;2022-09-09T17:23:06;0.63;;;0.38;;
51814;SDS011;37874;53.158;6.766;2022-09-09T17:25:32;0.85;;;0.30;;
51814;SDS011;37874;53.158;6.766;2022-09-09T17:27:59;0.57;;;0.20;;
51814;SDS011;37874;53.158;6.766;2022-09-09T17:30:25;0.47;;;0.30;;
51814;SDS011;37874;53.158;6.766;2022-09-09T17:32:52;0.50;;;0.20;;
51814;SDS011;37874;53.158;6.766;2022-09-09T17:35:18;0.45;;;0.30;;
51814;SDS011;37874;53.158;6.766;2022-09-09T17:37:44;0.60;;;0.30;;
51814;SDS011;37874;53.158;6.766;2022-09-09T17:40:10;0.30;;;0.30;;
51814;SDS011;37874;53.158;6.766;2022-09-09T17:42:36;0.38;;;0.20;;
51814;SDS011;37874;53.158;6.766;2022-09-09T17:45:02;0.65;;;0.30;;
51814;SDS011;37874;53.158;6.766;2022-09-09T17:47:28;0.60;;;0.40;;
51814;SDS011;37874;53.158;6.766;2022-09-09T17:49:55;0.40;;;0.20;;
51814;SDS011;37874;53.158;6.766;2022-09-09T17:52:21;0.90;;;0.40;;
51814;SDS011;37874;53.158;6.766;2022-09-09T17:54:47;0.38;;;0.22;;
51814;SDS011;37874;53.158;6.766;2022-09-09T17:57:17;1.27;;;0.30;;
51814;SDS011;37874;53.158;6.766;2022-09-09T17:59:44;0.68;;;0.20;;
51814;SDS011;37874;53.158;6.766;2022-09-09T18:02:12;0.98;;;0.30;;
51814;SDS011;37874;53.158;6.766;2022-09-09T18:04:38;0.95;;;0.40;;
51814;SDS011;37874;53.158;6.766;2022-09-09T18:07:04;0.60;;;0.40;;
51814;SDS011;37874;53.158;6.766;2022-09-09T18:09:29;0.60;;;0.30;;
51814;SDS011;37874;53.158;6.766;2022-09-09T18:11:56;0.90;;;0.35;;
51814;SDS011;37874;53.158;6.766;2022-09-09T18:14:28;0.75;;;0.30;;
51814;SDS011;37874;53.158;6.766;2022-09-09T18:16:55;0.40;;;0.20;;
51814;SDS011;37874;53.158;6.766;2022-09-09T18:19:26;0.40;;;0.20;;
51814;SDS011;37874;53.158;6.766;2022-09-09T18:21:54;0.63;;;0.30;;
51814;SDS011;37874;53.158;6.766;2022-09-09T18:24:21;0.57;;;0.30;;
51814;SDS011;37874;53.158;6.766;2022-09-09T18:26:47;0.70;;;0.20;;
51814;SDS011;37874;53.158;6.766;2022-09-09T18:29:16;0.70;;;0.20;;
51814;SDS011;37874;53.158;6.766;2022-09-09T18:31:48;0.70;;;0.30;;
51814;SDS011;37874;53.158;6.766;2022-09-09T18:34:15;0.30;;;0.20;;
51814;SDS011;37874;53.158;6.766;2022-09-09T18:36:43;0.60;;;0.20;;
51814;SDS011;37874;53.158;6.766;2022-09-09T18:39:10;1.08;;;0.30;;
51814;SDS011;37874;53.158;6.766;2022-09-09T18:41:48;0.60;;;0.30;;
51814;SDS011;37874;53.158;6.766;2022-09-09T18:44:17;0.75;;;0.38;;
51814;SDS011;37874;53.158;6.766;2022-09-09T18:46:45;0.70;;;0.30;;
51814;SDS011;37874;53.158;6.766;2022-09-09T18:49:12;0.73;;;0.30;;
51814;SDS011;37874;53.158;6.766;2022-09-09T18:51:39;0.50;;;0.22;;
51814;SDS011;37874;53.158;6.766;2022-09-09T18:54:09;0.47;;;0.30;;
51814;SDS011;37874;53.158;6.766;2022-09-09T18:56:38;0.38;;;0.20;;
51814;SDS011;37874;53.158;6.766;2022-09-09T18:59:04;0.38;;;0.30;;
51814;SDS011;37874;53.158;6.766;2022-09-09T19:01:31;0.63;;;0.30;;
51814;SDS011;37874;53.158;6.766;2022-09-09T19:03:59;0.47;;;0.20;;
51814;SDS011;37874;53.158;6.766;2022-09-09T19:06:27;0.47;;;0.28;;
51814;SDS011;37874;53.158;6.766;2022-09-09T19:08:57;1.00;;;0.30;;
51814;SDS011;37874;53.158;6.766;2022-09-09T19:11:24;0.20;;;0.20;;
51814;SDS011;37874;53.158;6.766;2022-09-09T19:13:52;0.55;;;0.30;;
51814;SDS011;37874;53.158;6.766;2022-09-09T19:16:27;0.60;;;0.20;;
51814;SDS011;37874;53.158;6.766;2022-09-09T19:18:58;1.02;;;0.40;;
51814;SDS011;37874;53.158;6.766;2022-09-09T19:21:25;0.30;;;0.20;;
51814;SDS011;37874;53.158;6.766;2022-09-09T19:23:55;0.50;;;0.28;;
51814;SDS011;37874;53.158;6.766;2022-09-09T19:26:29;0.70;;;0.32;;
51814;SDS011;37874;53.158;6.766;2022-09-09T19:28:56;0.30;;;0.30;;
51814;SDS011;37874;53.158;6.766;2022-09-09T19:31:23;0.40;;;0.20;;
51814;SDS011;37874;53.158;6.766;2022-09-09T19:33:52;0.40;;;0.30;;
51814;SDS011;37874;53.158;6.766;2022-09-09T19:36:19;0.47;;;0.30;;
51814;SDS011;37874;53.158;6.766;2022-09-09T19:38:46;0.55;;;0.28;;
51814;SDS011;37874;53.158;6.766;2022-09-09T19:41:12;1.13;;;0.50;;
51814;SDS011;37874;53.158;6.766;2022-09-09T19:43:43;0.98;;;0.40;;
51814;SDS011;37874;53.158;6.766;2022-09-09T19:46:12;0.68;;;0.32;;
51814;SDS011;37874;53.158;6.766;2022-09-09T19:48:40;1.30;;;0.50;;
51814;SDS011;37874;53.158;6.766;2022-09-09T19:51:08;0.88;;;0.30;;
51814;SDS011;37874;53.158;6.766;2022-09-09T19:53:37;2.03;;;0.30;;
51814;SDS011;37874;53.158;6.766;2022-09-09T19:56:05;0.32;;;0.30;;
51814;SDS011;37874;53.158;6.766;2022-09-09T19:58:35;0.55;;;0.30;;
51814;SDS011;37874;53.158;6.766;2022-09-09T20:01:06;0.95;;;0.40;;
51814;SDS011;37874;53.158;6.766;2022-09-09T20:03:33;0.70;;;0.35;;
51814;SDS011;37874;53.158;6.766;2022-09-09T20:06:00;1.02;;;0.38;;
51814;SDS011;37874;53.158;6.766;2022-09-09T20:08:25;0.73;;;0.40;;
51814;SDS011;37874;53.158;6.766;2022-09-09T20:10:52;0.88;;;0.40;;
51814;SDS011;37874;53.158;6.766;2022-09-09T20:13:18;0.57;;;0.35;;
51814;SDS011;37874;53.158;6.766;2022-09-09T20:15:45;0.70;;;0.43;;
51814;SDS011;37874;53.158;6.766;2022-09-09T20:20:45;0.57;;;0.30;;
51814;SDS011;37874;53.158;6.766;2022-09-09T20:23:11;0.75;;;0.38;;
51814;SDS011;37874;53.158;6.766;2022-09-09T20:25:36;0.77;;;0.30;;
51814;SDS011;37874;53.158;6.766;2022-09-09T20:28:02;0.55;;;0.40;;
51814;SDS011;37874;53.158;6.766;2022-09-09T20:30:28;0.80;;;0.50;;
51814;SDS011;37874;53.158;6.766;2022-09-09T20:32:53;0.60;;;0.40;;
51814;SDS011;37874;53.158;6.766;2022-09-09T20:35:19;0.75;;;0.50;;
51814;SDS011;37874;53.158;6.766;2022-09-09T20:37:44;0.82;;;0.60;;
51814;SDS011;37874;53.158;6.766;2022-09-09T20:40:10;0.93;;;0.50;;
51814;SDS011;37874;53.158;6.766;2022-09-09T20:42:36;1.08;;;0.50;;
51814;SDS011;37874;53.158;6.766;2022-09-09T20:45:02;0.80;;;0.43;;
51814;SDS011;37874;53.158;6.766;2022-09-09T20:47:28;2.08;;;0.50;;
51814;SDS011;37874;53.158;6.766;2022-09-09T20:49:53;1.10;;;0.50;;